Time;durP1;ratioP1;P1;durP2;ratioP2;P2;SDS_P1;SDS_P2;PMS_P1;PMS_P2;Temp;Humidity;BMP_temperature;BMP_pressure;BME280_temperature;BME280_humidity;BME280_pressure;Samples;Min_cycle;Max_cycle;Signal;HPM_P1;HPM_P2
2023/01/15 00:01:41;;;;;;;11.85;0.77;;;5.50;99.90;;;;;;5015726;28;20571;-67
2023/01/15 00:04:07;;;;;;;9.65;0.70;;;5.50;99.90;;;;;;4972733;28;20068;-67
2023/01/15 00:06:41;;;;;;;10.70;0.85;;;5.50;99.90;;;;;;5017693;28;20057;-66
2023/01/15 00:09:12;;;;;;;12.30;1.00;;;5.50;99.90;;;;;;5016811;28;20241;-66
2023/01/15 00:11:37;;;;;;;8.05;0.65;;;5.50;99.90;;;;;;5019535;28;20341;-68
2023/01/15 00:14:03;;;;;;;10.10;0.90;;;5.40;99.90;;;;;;5017472;28;20049;-67
2023/01/15 00:16:29;;;;;;;6.82;0.45;;;5.50;99.90;;;;;;5016866;28;20045;-67
2023/01/15 00:18:57;;;;;;;10.52;1.02;;;5.50;99.90;;;;;;5018514;28;20083;-67
2023/01/15 00:21:25;;;;;;;10.10;0.85;;;5.50;99.90;;;;;;5018395;28;20037;-67
2023/01/15 00:29:21;;;;;;;7.72;0.75;;;5.50;99.90;;;;;;5057198;28;20055;-66
2023/01/15 00:31:54;;;;;;;10.48;0.88;;;5.50;99.90;;;;;;5040497;28;20200;-68
2023/01/15 00:34:20;;;;;;;13.05;1.15;;;5.50;99.90;;;;;;5039541;28;20215;-65
2023/01/15 00:36:45;;;;;;;10.98;0.85;;;5.50;99.90;;;;;;5036647;28;20163;-66
2023/01/15 00:39:11;;;;;;;6.18;0.52;;;5.40;99.90;;;;;;5036216;28;20083;-66
2023/01/15 00:41:37;;;;;;;7.13;0.70;;;5.40;99.90;;;;;;5036305;28;20040;-67
2023/01/15 00:44:03;;;;;;;8.48;0.85;;;5.50;99.90;;;;;;5004699;28;20033;-66
2023/01/15 00:46:28;;;;;;;11.98;0.75;;;5.50;99.90;;;;;;5036039;28;20123;-67
2023/01/15 00:48:54;;;;;;;9.98;0.80;;;5.50;99.90;;;;;;5054167;28;20056;-66
2023/01/15 00:51:20;;;;;;;11.73;0.85;;;5.50;99.90;;;;;;5018012;28;21689;-66
2023/01/15 00:53:45;;;;;;;13.55;1.15;;;5.40;99.90;;;;;;5054297;28;20032;-66
2023/01/15 00:56:11;;;;;;;12.95;1.40;;;5.50;99.90;;;;;;5035300;28;20036;-67
2023/01/15 00:58:37;;;;;;;13.73;1.38;;;5.40;99.90;;;;;;5037728;28;20039;-68
2023/01/15 01:01:02;;;;;;;11.98;0.80;;;5.40;99.90;;;;;;5035187;28;20072;-66
2023/01/15 01:03:28;;;;;;;12.55;0.95;;;5.40;99.90;;;;;;5053192;28;20078;-65
2023/01/15 01:06:00;;;;;;;8.35;0.93;;;5.50;99.90;;;;;;5035035;28;20712;-66
2023/01/15 01:08:26;;;;;;;12.00;1.10;;;5.50;99.90;;;;;;5054619;28;20036;-67
2023/01/15 01:11:05;;;;;;;14.88;0.95;;;5.60;99.90;;;;;;5012078;28;20041;-66
2023/01/15 01:13:32;;;;;;;11.45;1.20;;;5.70;99.90;;;;;;5054120;28;20388;-67
2023/01/15 01:15:58;;;;;;;12.52;0.70;;;5.70;99.90;;;;;;5035482;28;20040;-67
2023/01/15 01:18:24;;;;;;;12.48;1.15;;;5.80;99.90;;;;;;5034871;28;20049;-67
2023/01/15 01:20:49;;;;;;;10.50;1.02;;;5.90;99.90;;;;;;5052290;28;20667;-66
2023/01/15 01:23:15;;;;;;;11.70;0.70;;;5.90;99.90;;;;;;5033943;28;20178;-67
2023/01/15 01:25:41;;;;;;;12.88;1.50;;;5.80;99.90;;;;;;5052343;28;20237;-67
2023/01/15 01:28:07;;;;;;;12.40;1.20;;;5.90;99.90;;;;;;5016673;28;20191;-67
2023/01/15 01:30:32;;;;;;;15.27;1.10;;;5.80;99.90;;;;;;5034454;28;20152;-67
2023/01/15 01:32:58;;;;;;;13.48;1.55;;;5.90;99.90;;;;;;5035301;28;20045;-66
2023/01/15 01:35:24;;;;;;;15.32;1.40;;;5.90;99.90;;;;;;5017995;28;20110;-68
2023/01/15 01:37:50;;;;;;;14.73;1.38;;;5.90;27.80;;;;;;5051941;28;20240;-67
2023/01/15 01:40:16;;;;;;;14.23;1.42;;;5.90;1.00;;;;;;5051884;28;20063;-65
2023/01/15 01:42:42;;;;;;;13.00;1.00;;;5.90;1.00;;;;;;5034168;28;20039;-66
2023/01/15 01:45:19;;;;;;;13.88;0.93;;;5.80;1.00;;;;;;5036184;28;20093;-66
2023/01/15 01:47:46;;;;;;;15.30;0.85;;;5.90;91.40;;;;;;5033263;28;20048;-66
2023/01/15 01:50:13;;;;;;;14.30;1.17;;;5.90;1.00;;;;;;5034382;28;20162;-66
2023/01/15 01:52:46;;;;;;;12.68;1.38;;;5.90;1.00;;;;;;5034281;28;20193;-66
2023/01/15 01:55:13;;;;;;;;;;;5.90;1.00;;;;;;5035387;28;20047;-66
2023/01/15 01:57:40;;;;;;;13.60;1.27;;;5.90;99.90;;;;;;5034700;28;19921;-67
2023/01/15 02:00:09;;;;;;;9.75;0.93;;;5.80;1.00;;;;;;5000997;28;20228;-66
2023/01/15 02:02:35;;;;;;;15.65;1.13;;;5.90;1.00;;;;;;5033946;28;20732;-66
2023/01/15 02:05:02;;;;;;;15.30;1.27;;;5.90;1.00;;;;;;5034068;28;20136;-66
2023/01/15 02:07:32;;;;;;;15.40;1.08;;;5.90;1.00;;;;;;5033666;28;20071;-66
2023/01/15 02:09:58;;;;;;;9.25;0.85;;;5.90;99.90;;;;;;5017716;28;20145;-66
2023/01/15 02:12:30;;;;;;;12.35;1.00;;;5.90;99.90;;;;;;5019062;28;20044;-66
2023/01/15 02:15:00;;;;;;;13.88;0.90;;;6.00;99.90;;;;;;5006564;28;20174;-66
2023/01/15 02:17:41;;;;;;;11.05;0.88;;;6.00;99.90;;;;;;5016200;28;20577;-66
2023/01/15 02:20:28;;;;;;;13.52;1.05;;;6.00;99.90;;;;;;5016717;28;20048;-67
2023/01/15 02:23:04;;;;;;;10.15;1.50;;;6.00;99.90;;;;;;5052342;28;20774;-66
2023/01/15 02:26:01;;;;;;;16.58;1.40;;;6.00;99.90;;;;;;5033419;28;20040;-67
2023/01/15 02:28:34;;;;;;;16.40;1.27;;;6.00;99.90;;;;;;5031041;28;20080;-65
2023/01/15 02:31:08;;;;;;;10.70;1.55;;;6.00;99.90;;;;;;5035413;28;20051;-66
2023/01/15 02:33:54;;;;;;;16.05;1.95;;;5.90;99.90;;;;;;5051103;28;20040;-66
2023/01/15 02:36:23;;;;;;;13.82;1.58;;;6.00;99.90;;;;;;5034240;28;20163;-66
2023/01/15 02:38:52;;;;;;;14.25;1.45;;;6.00;99.90;;;;;;5034451;28;20043;-66
2023/01/15 02:41:23;;;;;;;13.23;0.98;;;5.90;99.90;;;;;;5051463;28;20051;-66
2023/01/15 02:43:52;;;;;;;10.88;1.25;;;5.90;99.90;;;;;;5033175;28;20082;-66
2023/01/15 02:46:21;;;;;;;12.65;1.45;;;5.90;99.90;;;;;;5052311;28;20135;-66
2023/01/15 02:48:52;;;;;;;14.50;1.00;;;5.90;99.90;;;;;;5051318;28;20419;-66
2023/01/15 02:51:24;;;;;;;16.65;1.35;;;5.80;99.90;;;;;;5033769;28;20048;-65
2023/01/15 02:53:56;;;;;;;11.97;0.83;;;5.90;99.90;;;;;;5052292;28;20044;-66
2023/01/15 02:56:28;;;;;;;9.05;1.00;;;5.90;99.90;;;;;;5015977;28;20051;-66
2023/01/15 02:58:58;;;;;;;15.85;1.52;;;5.90;99.90;;;;;;5051890;28;20041;-66
2023/01/15 03:01:35;;;;;;;14.30;1.75;;;5.90;99.90;;;;;;5051766;28;20112;-66
2023/01/15 03:04:06;;;;;;;16.25;1.30;;;5.90;99.90;;;;;;5022435;28;20048;-66
2023/01/15 03:06:40;;;;;;;17.70;1.30;;;5.90;99.90;;;;;;5051924;28;20044;-66
2023/01/15 03:09:07;;;;;;;13.27;0.90;;;5.90;99.90;;;;;;5051878;28;20759;-66
2023/01/15 03:11:37;;;;;;;13.00;1.08;;;6.00;99.90;;;;;;5034669;28;20064;-65
2023/01/15 03:14:19;;;;;;;11.07;1.55;;;5.90;99.90;;;;;;5050410;28;20033;-66
2023/01/15 03:16:51;;;;;;;14.25;1.08;;;5.90;99.90;;;;;;5052977;28;20044;-66
2023/01/15 03:19:33;;;;;;;13.35;1.50;;;5.90;99.90;;;;;;5032261;28;20071;-66
2023/01/15 03:22:11;;;;;;;16.45;1.67;;;5.80;99.90;;;;;;5005491;28;20151;-66
2023/01/15 03:25:09;;;;;;;14.60;1.58;;;5.90;99.90;;;;;;5049817;28;20140;-65
2023/01/15 03:27:35;;;;;;;13.88;1.10;;;5.90;99.90;;;;;;5013378;28;20051;-65
2023/01/15 03:30:13;;;;;;;14.73;1.27;;;6.00;99.90;;;;;;5011367;28;20438;-66
2023/01/15 03:32:39;;;;;;;11.52;1.08;;;5.90;99.90;;;;;;5011323;28;20059;-66
2023/01/15 03:35:07;;;;;;;14.65;1.55;;;6.00;99.90;;;;;;5008819;28;20538;-66
2023/01/15 03:37:33;;;;;;;9.90;1.20;;;6.00;55.20;;;;;;5010494;28;20041;-66
2023/01/15 03:40:00;;;;;;;12.02;1.08;;;6.00;99.90;;;;;;4998780;28;20529;-66
2023/01/15 03:42:32;;;;;;;11.60;0.85;;;6.00;99.90;;;;;;5009569;28;20133;-65
2023/01/15 03:45:30;;;;;;;12.93;1.38;;;5.80;99.90;;;;;;5010273;28;20522;-66
2023/01/15 03:48:03;;;;;;;14.63;1.10;;;5.50;99.90;;;;;;5000403;28;20500;-66
2023/01/15 03:50:37;;;;;;;13.93;1.45;;;5.50;99.90;;;;;;5006876;28;20116;-65
2023/01/15 03:53:27;;;;;;;16.55;1.30;;;5.40;99.90;;;;;;5009159;28;20060;-65
2023/01/15 03:56:02;;;;;;;10.93;1.05;;;5.40;99.90;;;;;;5009035;28;20052;-66
2023/01/15 03:58:37;;;;;;;15.45;1.30;;;5.50;99.90;;;;;;5009873;28;20033;-65
2023/01/15 04:01:08;;;;;;;14.23;1.20;;;5.70;99.90;;;;;;5007802;28;20037;-66
2023/01/15 04:03:36;;;;;;;14.45;1.40;;;5.70;99.90;;;;;;5007824;28;20116;-65
2023/01/15 04:06:03;;;;;;;11.07;1.13;;;5.70;99.90;;;;;;5008181;28;20057;-67
2023/01/15 04:08:34;;;;;;;12.30;1.00;;;5.80;99.90;;;;;;5010506;28;20104;-66
2023/01/15 04:11:01;;;;;;;15.55;1.35;;;5.80;99.90;;;;;;5008522;28;20390;-66
2023/01/15 04:13:27;;;;;;;13.05;0.70;;;5.80;99.90;;;;;;5013086;28;20448;-65
2023/01/15 04:15:54;;;;;;;19.08;1.65;;;5.80;99.90;;;;;;5013248;28;20258;-66
2023/01/15 04:18:20;;;;;;;14.43;1.17;;;5.80;99.90;;;;;;5013378;28;20052;-65
2023/01/15 04:20:46;;;;;;;15.05;1.67;;;5.90;24.60;;;;;;5013365;28;20077;-66
2023/01/15 04:23:12;;;;;;;19.25;1.48;;;5.80;99.90;;;;;;5013971;28;20042;-66
2023/01/15 04:25:39;;;;;;;14.73;1.88;;;5.80;99.90;;;;;;4995256;28;20071;-66
2023/01/15 04:28:06;;;;;;;15.13;1.58;;;5.70;99.90;;;;;;5016171;28;20052;-66
2023/01/15 04:30:33;;;;;;;14.77;1.60;;;5.70;99.90;;;;;;5035495;28;20714;-65
2023/01/15 04:32:59;;;;;;;14.77;1.38;;;5.70;99.90;;;;;;5052925;28;20482;-66
2023/01/15 04:35:25;;;;;;;15.10;1.20;;;5.70;99.90;;;;;;5034869;28;20098;-64
2023/01/15 04:37:58;;;;;;;14.38;1.40;;;5.70;99.90;;;;;;5033724;28;20463;-64
2023/01/15 04:45:58;;;;;;;16.60;1.25;;;5.80;3.20;;;;;;5035787;28;20052;-65
2023/01/15 04:48:24;;;;;;;13.73;1.20;;;5.80;20.60;;;;;;5037032;28;20330;-64
2023/01/15 04:50:50;;;;;;;13.63;1.23;;;5.80;56.40;;;;;;5033793;28;20471;-65
2023/01/15 04:53:16;;;;;;;17.23;1.00;;;5.70;1.00;;;;;;5035530;28;20373;-64
2023/01/15 04:55:41;;;;;;;12.38;1.30;;;5.70;80.10;;;;;;5052265;28;20180;-65
2023/01/15 04:58:07;;;;;;;14.73;1.70;;;5.70;56.70;;;;;;5007200;28;20433;-63
2023/01/15 05:00:33;;;;;;;12.80;1.25;;;5.60;59.40;;;;;;5051297;28;20495;-64
2023/01/15 05:02:58;;;;;;;14.18;1.27;;;5.50;94.80;;;;;;5052758;28;20154;-64
2023/01/15 05:05:24;;;;;;;13.77;1.25;;;5.50;76.00;;;;;;5034732;28;20040;-64
2023/01/15 05:07:50;;;;;;;14.68;1.10;;;5.60;77.50;;;;;;5051857;28;20032;-65
2023/01/15 05:10:16;;;;;;;10.77;1.48;;;5.60;11.90;;;;;;5053489;28;20660;-64
2023/01/15 05:12:41;;;;;;;15.00;1.38;;;5.60;72.60;;;;;;5010243;28;20068;-64
2023/01/15 05:15:07;;;;;;;10.10;0.88;;;5.40;80.50;;;;;;5035049;28;20044;-64
2023/01/15 05:17:33;;;;;;;13.98;1.70;;;5.40;27.00;;;;;;5051921;28;20040;-65
2023/01/15 05:19:59;;;;;;;13.93;1.10;;;5.40;29.60;;;;;;5035637;28;20166;-64
2023/01/15 05:22:25;;;;;;;12.27;1.10;;;5.40;64.20;;;;;;5034550;28;20047;-65
2023/01/15 05:24:51;;;;;;;15.20;1.92;;;5.40;1.00;;;;;;5052920;28;20427;-65
2023/01/15 05:27:16;;;;;;;14.30;1.13;;;5.40;15.10;;;;;;5018684;28;20710;-63
2023/01/15 05:29:42;;;;;;;17.88;1.63;;;5.40;1.00;;;;;;5014455;28;20053;-64
2023/01/15 05:32:08;;;;;;;14.63;1.38;;;5.40;38.40;;;;;;5010786;28;20168;-64
2023/01/15 05:34:34;;;;;;;15.38;1.27;;;5.30;1.00;;;;;;4970625;28;20097;-64
2023/01/15 05:36:59;;;;;;;15.13;1.23;;;5.40;1.00;;;;;;5010878;28;20041;-64
2023/01/15 05:39:25;;;;;;;14.77;0.95;;;5.40;1.00;;;;;;4978685;28;21931;-64
2023/01/15 05:41:51;;;;;;;15.90;1.65;;;5.30;10.00;;;;;;5010467;28;20399;-65
2023/01/15 05:44:23;;;;;;;19.40;1.60;;;5.30;50.00;;;;;;5009587;28;20060;-65
2023/01/15 05:46:51;;;;;;;12.32;1.00;;;5.20;1.00;;;;;;5009898;28;20046;-65
2023/01/15 05:49:19;;;;;;;16.25;1.58;;;5.20;1.00;;;;;;4993862;28;20184;-65
2023/01/15 05:51:46;;;;;;;11.73;1.33;;;5.30;28.00;;;;;;5009840;28;20041;-64
2023/01/15 05:54:14;;;;;;;14.63;1.35;;;5.30;22.60;;;;;;5009502;28;20037;-65
2023/01/15 05:56:41;;;;;;;11.55;1.30;;;5.20;7.50;;;;;;5009626;28;20037;-64
2023/01/15 05:59:08;;;;;;;17.38;1.30;;;5.10;85.30;;;;;;5008747;28;20150;-64
2023/01/15 06:01:34;;;;;;;13.52;1.40;;;5.20;82.90;;;;;;5011980;28;20076;-64
2023/01/15 06:04:01;;;;;;;12.77;1.00;;;5.10;34.20;;;;;;5011571;28;20537;-65
2023/01/15 06:06:27;;;;;;;14.73;1.67;;;5.10;52.90;;;;;;5009390;28;20439;-64
2023/01/15 06:08:53;;;;;;;18.80;1.52;;;5.20;35.00;;;;;;5010978;28;20116;-65
2023/01/15 06:11:19;;;;;;;9.15;0.85;;;5.20;99.90;;;;;;5011578;28;20051;-65
2023/01/15 06:13:44;;;;;;;13.13;0.80;;;5.20;39.70;;;;;;5009793;28;20430;-66
2023/01/15 06:16:10;;;;;;;18.80;1.60;;;5.20;65.80;;;;;;4992653;28;20376;-64
2023/01/15 06:18:40;;;;;;;13.15;1.15;;;5.20;24.80;;;;;;5026232;28;20041;-64
2023/01/15 06:21:07;;;;;;;17.30;1.30;;;5.20;1.00;;;;;;5008969;28;20045;-65
2023/01/15 06:23:37;;;;;;;13.77;1.17;;;5.20;1.00;;;;;;5007804;28;20966;-64
2023/01/15 06:26:05;;;;;;;20.35;1.77;;;5.20;1.00;;;;;;5010544;28;20125;-64
2023/01/15 06:28:31;;;;;;;7.38;0.73;;;5.20;1.00;;;;;;5008533;28;20049;-64
2023/01/15 06:30:56;;;;;;;12.13;0.88;;;5.20;1.00;;;;;;5009384;28;20111;-65
2023/01/15 06:33:22;;;;;;;11.48;1.38;;;5.20;1.00;;;;;;5007280;28;20348;-65
2023/01/15 06:35:48;;;;;;;8.55;0.80;;;5.20;1.00;;;;;;4988948;28;20404;-65
2023/01/15 06:38:14;;;;;;;11.73;1.30;;;5.10;1.00;;;;;;5009992;28;20044;-65
2023/01/15 06:40:43;;;;;;;13.77;1.08;;;5.00;1.00;;;;;;4989658;28;20140;-65
2023/01/15 06:48:38;;;;;;;10.73;0.85;;;5.00;1.00;;;;;;5010506;28;20042;-64
2023/01/15 06:51:03;;;;;;;11.85;0.95;;;5.00;1.00;;;;;;4993085;28;20048;-66
2023/01/15 06:53:29;;;;;;;17.67;1.23;;;5.00;1.00;;;;;;5010389;28;20033;-64
2023/01/15 06:55:55;;;;;;;11.13;0.70;;;5.00;99.90;;;;;;5007885;28;20161;-64
2023/01/15 06:58:26;;;;;;;10.43;0.95;;;5.00;1.00;;;;;;5008264;28;20225;-64
2023/01/15 07:00:54;;;;;;;16.55;1.25;;;5.00;1.00;;;;;;5010850;28;20061;-64
2023/01/15 07:03:21;;;;;;;11.20;1.00;;;5.00;99.90;;;;;;5011218;28;20324;-64
2023/01/15 07:05:47;;;;;;;11.38;0.90;;;5.00;1.00;;;;;;5010278;28;20136;-64
2023/01/15 07:08:13;;;;;;;13.60;1.02;;;5.00;1.00;;;;;;4995190;28;20034;-65
2023/01/15 07:10:40;;;;;;;10.70;0.68;;;5.00;1.00;;;;;;4982838;28;20037;-65
2023/01/15 07:13:06;;;;;;;15.55;1.25;;;4.90;1.00;;;;;;4992406;28;20253;-64
2023/01/15 07:15:33;;;;;;;15.23;1.00;;;4.90;1.00;;;;;;5009827;28;20037;-64
2023/01/15 07:17:59;;;;;;;7.97;0.93;;;4.90;1.00;;;;;;5009808;28;20049;-64
2023/01/15 07:20:25;;;;;;;14.43;1.23;;;5.00;1.00;;;;;;5011207;28;20033;-64
2023/01/15 07:22:51;;;;;;;16.38;1.65;;;4.90;1.00;;;;;;5008885;28;20120;-63
2023/01/15 07:25:17;;;;;;;8.75;0.80;;;4.90;1.00;;;;;;5008315;28;20301;-63
2023/01/15 07:27:45;;;;;;;10.20;0.90;;;4.90;1.00;;;;;;5011020;28;20412;-63
2023/01/15 07:30:11;;;;;;;15.43;1.27;;;5.00;1.00;;;;;;5047561;28;20409;-64
2023/01/15 07:32:37;;;;;;;15.60;1.58;;;4.90;1.00;;;;;;5032294;28;20417;-64
2023/01/15 07:35:03;;;;;;;17.20;1.20;;;5.00;99.90;;;;;;5029740;28;20071;-66
2023/01/15 07:37:29;;;;;;;6.93;0.75;;;5.00;99.90;;;;;;5045980;28;20044;-65
2023/01/15 07:39:56;;;;;;;11.68;1.05;;;5.00;99.90;;;;;;5029679;28;20519;-65
2023/01/15 07:50:37;;;;;;;7.47;0.70;;;5.10;99.90;;;;;;5035135;28;20610;-65
2023/01/15 07:53:03;;;;;;;10.68;1.23;;;5.10;99.90;;;;;;5035246;28;20056;-64
2023/01/15 07:55:29;;;;;;;11.35;1.30;;;5.10;99.90;;;;;;5005867;28;20040;-65
2023/01/15 07:57:54;;;;;;;7.68;0.88;;;5.20;99.90;;;;;;5033818;28;20048;-65
2023/01/15 08:00:23;;;;;;;8.30;0.98;;;5.10;99.90;;;;;;5017644;28;20079;-65
2023/01/15 08:02:49;;;;;;;9.98;1.05;;;5.10;99.90;;;;;;5032256;28;20127;-65
2023/01/15 08:05:15;;;;;;;11.48;1.23;;;5.10;99.90;;;;;;5032530;28;20063;-66
2023/01/15 08:07:44;;;;;;;8.95;0.77;;;5.10;99.90;;;;;;5011343;28;20604;-64
2023/01/15 08:10:12;;;;;;;11.50;0.85;;;5.10;99.90;;;;;;5000873;28;20243;-65
2023/01/15 08:15:24;;;;;;;11.93;1.17;;;5.20;99.90;;;;;;5032127;28;20218;-65
2023/01/15 08:17:51;;;;;;;10.70;0.65;;;5.20;99.90;;;;;;5032210;28;20429;-64
2023/01/15 08:20:22;;;;;;;12.85;1.15;;;5.20;99.90;;;;;;5049938;28;20060;-67
2023/01/15 08:22:48;;;;;;;13.43;1.10;;;5.20;99.90;;;;;;5032813;28;20044;-64
2023/01/15 08:25:19;;;;;;;15.63;1.08;;;5.20;99.90;;;;;;5011382;28;20044;-65
2023/01/15 08:27:45;;;;;;;10.45;0.93;;;5.20;99.90;;;;;;5035008;28;20045;-65
2023/01/15 08:30:15;;;;;;;10.32;0.80;;;5.20;99.90;;;;;;5033352;28;20430;-65
2023/01/15 08:32:41;;;;;;;11.75;1.08;;;5.20;99.90;;;;;;5050945;28;20056;-65
2023/01/15 08:35:08;;;;;;;10.82;0.80;;;5.30;99.90;;;;;;5052722;28;20067;-66
2023/01/15 08:37:34;;;;;;;11.82;1.00;;;5.40;99.90;;;;;;5033612;28;20049;-65
2023/01/15 08:39:59;;;;;;;7.40;0.55;;;5.40;99.90;;;;;;5035233;28;20055;-64
2023/01/15 08:42:25;;;;;;;15.38;1.08;;;5.40;99.90;;;;;;5054248;28;20036;-65
2023/01/15 08:44:51;;;;;;;8.32;1.15;;;5.40;99.90;;;;;;5054181;28;20097;-64
2023/01/15 08:47:17;;;;;;;11.90;1.40;;;5.40;99.90;;;;;;5055274;28;20233;-64
2023/01/15 08:49:45;;;;;;;10.48;1.15;;;5.40;99.90;;;;;;5024286;28;20679;-64
2023/01/15 08:52:10;;;;;;;8.85;1.00;;;5.40;99.90;;;;;;5057448;28;20062;-65
2023/01/15 08:54:36;;;;;;;10.48;0.70;;;5.40;99.90;;;;;;5058710;28;20036;-63
2023/01/15 08:57:02;;;;;;;9.50;1.20;;;5.40;99.90;;;;;;5056355;28;20097;-64
2023/01/15 08:59:27;;;;;;;8.60;1.15;;;5.60;99.90;;;;;;5037911;28;20118;-64
2023/01/15 09:01:53;;;;;;;8.70;0.70;;;5.70;99.90;;;;;;5021925;28;20212;-64
2023/01/15 09:04:20;;;;;;;9.23;0.77;;;5.70;99.90;;;;;;5038378;28;20044;-63
2023/01/15 09:06:47;;;;;;;8.75;1.08;;;5.70;99.90;;;;;;5022140;28;20044;-63
2023/01/15 09:09:13;;;;;;;12.07;1.13;;;5.70;99.90;;;;;;5038625;28;20466;-63
2023/01/15 09:11:39;;;;;;;10.05;0.77;;;5.60;99.90;;;;;;5038261;28;20482;-64
2023/01/15 09:14:10;;;;;;;8.00;0.85;;;5.60;99.90;;;;;;5056422;28;20106;-63
2023/01/15 09:16:37;;;;;;;8.45;0.60;;;5.50;99.90;;;;;;5038477;28;20071;-63
2023/01/15 09:19:04;;;;;;;8.90;0.70;;;5.40;99.90;;;;;;5056246;28;20545;-63
2023/01/15 09:21:30;;;;;;;11.38;1.23;;;5.30;99.90;;;;;;5056145;28;20145;-64
2023/01/15 09:23:55;;;;;;;10.43;1.45;;;5.10;99.90;;;;;;5056039;28;20123;-63
2023/01/15 09:26:28;;;;;;;10.23;0.73;;;4.80;99.90;;;;;;5022329;28;20368;-63
2023/01/15 09:28:55;;;;;;;9.48;0.95;;;4.80;99.90;;;;;;5056151;28;20525;-64
2023/01/15 09:31:21;;;;;;;9.85;0.70;;;4.80;99.90;;;;;;5056293;28;20292;-64
2023/01/15 09:33:47;;;;;;;8.68;0.88;;;4.90;99.90;;;;;;5038216;28;20037;-63
2023/01/15 09:36:18;;;;;;;8.27;1.33;;;4.90;99.90;;;;;;5038163;28;20049;-63
2023/01/15 09:38:45;;;;;;;14.35;1.10;;;4.90;99.90;;;;;;5021057;28;20055;-63
2023/01/15 09:42:03;;;;;;;12.02;0.98;;;5.00;99.90;;;;;;5021287;28;20036;-63
2023/01/15 09:44:20;;;;;;;5.97;0.52;;;5.00;99.90;;;;;;5056043;28;20307;-62
2023/01/15 09:46:57;;;;;;;9.27;0.57;;;5.00;99.90;;;;;;5038251;28;20052;-63
2023/01/15 09:49:45;;;;;;;7.70;0.77;;;5.10;99.90;;;;;;5037698;28;20037;-64
2023/01/15 09:52:41;;;;;;;11.48;0.85;;;5.20;99.90;;;;;;5056432;28;20086;-62
2023/01/15 09:55:11;;;;;;;11.50;0.98;;;5.40;99.90;;;;;;5020976;28;20135;-64
2023/01/15 09:57:37;;;;;;;12.35;0.90;;;5.40;99.90;;;;;;5055156;28;20048;-64
2023/01/15 10:00:05;;;;;;;11.90;0.80;;;5.40;99.90;;;;;;5055558;28;20055;-64
2023/01/15 10:02:39;;;;;;;14.60;1.05;;;5.40;99.90;;;;;;5037416;28;20049;-63
2023/01/15 10:05:25;;;;;;;9.80;1.00;;;5.50;99.90;;;;;;5037251;28;20044;-64
2023/01/15 10:08:18;;;;;;;11.52;0.80;;;5.60;99.90;;;;;;5054896;28;20101;-65
2023/01/15 10:10:58;;;;;;;9.82;0.70;;;5.70;99.90;;;;;;5036842;28;20125;-64
2023/01/15 10:13:40;;;;;;;7.00;0.80;;;5.80;99.90;;;;;;5037401;28;20295;-64
2023/01/15 10:16:08;;;;;;;9.65;0.70;;;5.90;99.90;;;;;;5054613;28;20044;-64
2023/01/15 10:18:34;;;;;;;10.52;0.70;;;6.00;99.90;;;;;;5036369;28;20099;-64
2023/01/15 10:21:09;;;;;;;10.10;0.80;;;6.20;99.90;;;;;;5036039;28;20040;-64
2023/01/15 10:23:38;;;;;;;10.98;0.80;;;6.30;99.90;;;;;;5036601;28;20530;-66
2023/01/15 10:26:39;;;;;;;11.43;0.85;;;6.30;99.90;;;;;;5020580;28;20610;-65
2023/01/15 10:29:21;;;;;;;14.90;1.05;;;6.30;99.90;;;;;;5036670;28;20057;-64
2023/01/15 10:31:52;;;;;;;12.80;0.80;;;6.40;99.90;;;;;;5036087;28;20055;-64
2023/01/15 10:34:42;;;;;;;14.57;0.98;;;6.50;99.90;;;;;;5054574;28;20123;-64
2023/01/15 10:37:15;;;;;;;9.85;1.00;;;6.80;99.90;;;;;;5019864;28;20040;-64
2023/01/15 10:40:40;;;;;;;11.23;0.88;;;7.20;99.90;;;;;;5053892;28;20452;-64
2023/01/15 10:43:27;;;;;;;9.80;0.80;;;7.50;99.90;;;;;;4985771;28;20058;-64
2023/01/15 10:45:58;;;;;;;11.05;1.05;;;7.60;99.90;;;;;;5036111;28;20041;-64
2023/01/15 10:48:37;;;;;;;10.98;0.95;;;7.50;99.90;;;;;;5036662;28;20406;-64
2023/01/15 10:51:23;;;;;;;9.65;0.95;;;7.40;99.90;;;;;;5019567;28;20431;-64
2023/01/15 10:53:49;;;;;;;6.85;0.63;;;7.20;99.90;;;;;;5036272;28;20055;-66
2023/01/15 10:56:27;;;;;;;10.57;1.05;;;7.10;99.90;;;;;;5036006;28;20044;-63
2023/01/15 10:58:58;;;;;;;14.05;1.75;;;7.10;99.90;;;;;;5036596;28;20930;-65
2023/01/15 11:01:26;;;;;;;9.65;0.90;;;7.20;99.90;;;;;;5035830;28;20369;-64
2023/01/15 11:03:53;;;;;;;11.30;1.40;;;7.30;99.90;;;;;;5019139;28;20056;-64
2023/01/15 11:06:21;;;;;;;10.73;0.80;;;7.60;99.90;;;;;;5019059;28;20249;-64
2023/01/15 11:08:56;;;;;;;6.97;0.93;;;7.90;99.90;;;;;;5053978;28;20479;-64
2023/01/15 11:19:42;;;;;;;10.53;0.87;;;7.80;99.90;;;;;;5052816;28;20525;-64
2023/01/15 11:22:17;;;;;;;9.40;0.57;;;7.90;99.90;;;;;;5018855;28;20407;-65
2023/01/15 11:24:52;;;;;;;9.65;1.40;;;8.40;99.90;;;;;;5035512;28;20077;-65
2023/01/15 11:27:25;;;;;;;8.30;0.60;;;8.60;99.90;;;;;;5019198;28;20044;-65
2023/01/15 11:29:53;;;;;;;8.70;0.90;;;8.40;99.90;;;;;;5035342;28;20163;-64
2023/01/15 11:32:37;;;;;;;13.02;1.20;;;8.20;99.90;;;;;;5036001;28;20280;-64
2023/01/15 11:35:17;;;;;;;9.25;1.10;;;8.00;99.90;;;;;;5034933;28;20044;-64
2023/01/15 11:37:43;;;;;;;15.25;1.38;;;8.00;99.90;;;;;;5018587;28;20091;-64
2023/01/15 11:40:22;;;;;;;7.85;0.77;;;7.90;99.90;;;;;;5035553;28;20259;-64
2023/01/15 11:51:14;;;;;;;11.55;1.23;;;7.50;99.90;;;;;;5053391;28;20051;-64
2023/01/15 11:53:48;;;;;;;8.50;0.60;;;7.50;99.90;;;;;;5035567;28;20047;-65
2023/01/15 11:56:18;;;;;;;;;;;7.40;99.90;;;;;;5053997;28;20155;-64
2023/01/15 11:58:54;;;;;;;13.75;1.25;;;7.30;99.90;;;;;;5035210;28;20132;-65
2023/01/15 12:01:32;;;;;;;10.68;0.80;;;7.00;99.90;;;;;;5035270;28;20332;-64
2023/01/15 12:04:00;;;;;;;11.95;1.15;;;6.80;99.90;;;;;;5052574;28;20044;-64
2023/01/15 12:06:28;;;;;;;13.82;1.10;;;6.70;99.90;;;;;;5035956;28;21061;-64
2023/01/15 12:09:22;;;;;;;10.57;1.08;;;6.60;99.90;;;;;;5034865;28;20060;-64
2023/01/15 12:12:06;;;;;;;9.10;1.10;;;6.40;99.90;;;;;;5019075;28;20249;-64
2023/01/15 12:15:05;;;;;;;8.43;0.77;;;6.20;99.90;;;;;;5053770;28;20538;-64
2023/01/15 12:17:40;;;;;;;14.20;1.33;;;5.80;99.90;;;;;;5036154;28;20048;-66
2023/01/15 12:20:15;;;;;;;10.80;1.00;;;5.70;1.00;;;;;;5053891;28;20051;-64
2023/01/15 12:23:02;;;;;;;13.98;1.13;;;5.40;1.00;;;;;;5035792;28;20390;-65
2023/01/15 12:25:33;;;;;;;12.57;1.05;;;5.40;99.90;;;;;;5035716;28;20082;-66
2023/01/15 12:28:06;;;;;;;14.30;1.35;;;5.20;99.90;;;;;;5054449;28;20188;-64
2023/01/15 12:30:44;;;;;;;12.98;1.08;;;5.10;99.90;;;;;;5053210;28;20056;-64
2023/01/15 12:33:20;;;;;;;9.90;1.25;;;4.90;99.90;;;;;;5040705;28;20514;-63
2023/01/15 12:35:55;;;;;;;9.25;1.42;;;4.80;99.90;;;;;;5057575;28;20445;-64
2023/01/15 12:38:40;;;;;;;5.38;0.40;;;5.30;1.00;;;;;;5022179;28;20717;-65
2023/01/15 12:41:14;;;;;;;18.27;1.20;;;4.60;1.00;;;;;;5038796;28;20072;-66
2023/01/15 12:46:31;;;;;;;3.55;0.30;;;4.60;99.90;;;;;;5038729;28;20795;-66
2023/01/15 12:49:09;;;;;;;4.63;0.30;;;4.70;99.90;;;;;;5038797;28;20051;-64
2023/01/15 12:51:50;;;;;;;3.60;0.20;;;4.80;99.90;;;;;;5038964;28;20367;-63
2023/01/15 12:54:27;;;;;;;2.15;0.20;;;4.80;99.90;;;;;;5039044;28;20048;-64
2023/01/15 12:57:15;;;;;;;2.13;0.10;;;4.70;99.90;;;;;;5038847;28;20127;-64
2023/01/15 13:00:11;;;;;;;0.70;0.10;;;4.20;99.90;;;;;;5038931;28;20056;-64
2023/01/15 13:02:49;;;;;;;2.15;0.30;;;4.60;99.90;;;;;;5051681;28;20052;-64
2023/01/15 13:05:17;;;;;;;7.45;0.30;;;4.40;99.90;;;;;;5039173;28;20032;-62
2023/01/15 13:07:53;;;;;;;5.68;0.30;;;4.80;99.90;;;;;;5055238;28;20237;-63
2023/01/15 13:10:25;;;;;;;4.38;0.32;;;4.40;99.90;;;;;;5035860;28;20455;-63
2023/01/15 13:12:54;;;;;;;3.67;0.25;;;4.80;99.90;;;;;;5054687;28;20072;-63
2023/01/15 13:15:25;;;;;;;3.60;0.20;;;5.00;99.90;;;;;;5053791;28;20041;-64
2023/01/15 13:18:00;;;;;;;7.22;0.60;;;4.20;99.90;;;;;;5054563;28;20523;-62
2023/01/15 13:20:50;;;;;;;6.95;0.50;;;4.10;99.90;;;;;;5022467;28;20053;-63
2023/01/15 13:23:54;;;;;;;5.10;0.30;;;4.80;99.90;;;;;;5047869;28;20044;-64
2023/01/15 13:26:49;;;;;;;5.22;0.50;;;5.00;99.90;;;;;;4958966;28;20074;-64
2023/01/15 13:29:38;;;;;;;11.07;0.60;;;5.00;99.90;;;;;;5037640;28;20059;-65
2023/01/15 13:32:19;;;;;;;8.30;0.60;;;4.30;99.90;;;;;;5030647;28;20063;-65
2023/01/15 13:34:44;;;;;;;9.68;0.55;;;5.10;99.90;;;;;;5032843;28;20063;-65
2023/01/15 13:37:25;;;;;;;10.07;0.60;;;5.10;99.90;;;;;;5033365;28;20503;-65
2023/01/15 13:39:56;;;;;;;4.13;0.38;;;4.20;99.90;;;;;;5050850;28;20075;-64
2023/01/15 13:42:30;;;;;;;4.97;0.40;;;5.20;99.90;;;;;;5031879;28;20252;-62
2023/01/15 13:45:06;;;;;;;4.15;0.45;;;4.70;99.90;;;;;;5031384;28;20269;-64
2023/01/15 13:47:36;;;;;;;5.40;0.45;;;5.10;99.90;;;;;;5032636;28;20063;-65
2023/01/15 13:50:16;;;;;;;8.10;0.60;;;4.30;99.90;;;;;;5016648;28;20084;-64
2023/01/15 13:52:42;;;;;;;9.18;1.08;;;4.50;99.90;;;;;;5034517;28;20283;-64
2023/01/15 13:55:10;;;;;;;7.47;0.68;;;4.90;99.90;;;;;;5034081;28;20048;-63
2023/01/15 13:57:39;;;;;;;6.22;0.50;;;4.30;99.90;;;;;;5033957;28;20040;-64
2023/01/15 14:00:32;;;;;;;8.18;0.68;;;4.60;99.90;;;;;;5051554;28;20044;-63